sensor_id;sensor_type;location;lat;lon;timestamp;P1;durP1;ratioP1;P2;durP2;ratioP2
71368;SDS011;59175;53.214;5.728;2023-04-06T00:02:00;2.20;;;0.90;;
71368;SDS011;59175;53.214;5.728;2023-04-06T00:04:25;7.60;;;0.67;;
71368;SDS011;59175;53.214;5.728;2023-04-06T00:06:51;7.13;;;1.38;;
71368;SDS011;59175;53.214;5.728;2023-04-06T00:09:17;3.87;;;1.10;;
71368;SDS011;59175;53.214;5.728;2023-04-06T00:11:42;4.23;;;0.97;;
71368;SDS011;59175;53.214;5.728;2023-04-06T00:14:07;6.83;;;1.33;;
71368;SDS011;59175;53.214;5.728;2023-04-06T00:16:32;3.43;;;1.10;;
71368;SDS011;59175;53.214;5.728;2023-04-06T00:18:57;5.27;;;1.30;;
71368;SDS011;59175;53.214;5.728;2023-04-06T00:21:23;4.70;;;1.23;;
71368;SDS011;59175;53.214;5.728;2023-04-06T00:23:48;2.70;;;0.90;;
71368;SDS011;59175;53.214;5.728;2023-04-06T00:26:13;4.30;;;1.80;;
71368;SDS011;59175;53.214;5.728;2023-04-06T00:28:38;2.57;;;0.87;;
71368;SDS011;59175;53.214;5.728;2023-04-06T00:31:03;3.47;;;1.10;;
71368;SDS011;59175;53.214;5.728;2023-04-06T00:33:29;4.17;;;1.90;;
71368;SDS011;59175;53.214;5.728;2023-04-06T00:35:54;9.37;;;1.93;;
71368;SDS011;59175;53.214;5.728;2023-04-06T00:38:19;5.73;;;1.60;;
71368;SDS011;59175;53.214;5.728;2023-04-06T00:40:45;3.35;;;0.75;;
71368;SDS011;59175;53.214;5.728;2023-04-06T00:43:11;3.25;;;1.13;;
71368;SDS011;59175;53.214;5.728;2023-04-06T00:45:40;2.00;;;0.57;;
71368;SDS011;59175;53.214;5.728;2023-04-06T00:48:06;6.32;;;1.15;;
71368;SDS011;59175;53.214;5.728;2023-04-06T00:50:31;2.80;;;0.83;;
71368;SDS011;59175;53.214;5.728;2023-04-06T00:52:56;3.93;;;0.90;;
71368;SDS011;59175;53.214;5.728;2023-04-06T00:55:21;4.20;;;0.50;;
71368;SDS011;59175;53.214;5.728;2023-04-06T00:57:47;7.67;;;2.00;;
71368;SDS011;59175;53.214;5.728;2023-04-06T01:00:12;3.40;;;0.60;;
71368;SDS011;59175;53.214;5.728;2023-04-06T01:02:38;4.13;;;1.30;;
71368;SDS011;59175;53.214;5.728;2023-04-06T01:05:03;4.20;;;1.10;;
71368;SDS011;59175;53.214;5.728;2023-04-06T01:07:29;8.95;;;1.60;;
71368;SDS011;59175;53.214;5.728;2023-04-06T01:09:54;4.60;;;1.60;;
71368;SDS011;59175;53.214;5.728;2023-04-06T01:12:20;3.07;;;1.27;;
71368;SDS011;59175;53.214;5.728;2023-04-06T01:14:45;7.17;;;1.37;;
71368;SDS011;59175;53.214;5.728;2023-04-06T01:17:10;5.57;;;1.43;;
71368;SDS011;59175;53.214;5.728;2023-04-06T01:19:36;4.40;;;1.67;;
71368;SDS011;59175;53.214;5.728;2023-04-06T01:22:01;5.13;;;1.43;;
71368;SDS011;59175;53.214;5.728;2023-04-06T01:24:26;5.70;;;1.07;;
71368;SDS011;59175;53.214;5.728;2023-04-06T01:26:52;5.43;;;1.30;;
71368;SDS011;59175;53.214;5.728;2023-04-06T01:29:17;3.90;;;1.53;;
71368;SDS011;59175;53.214;5.728;2023-04-06T01:31:42;2.83;;;1.13;;
71368;SDS011;59175;53.214;5.728;2023-04-06T01:34:07;2.50;;;0.77;;
71368;SDS011;59175;53.214;5.728;2023-04-06T01:36:33;2.05;;;0.85;;
71368;SDS011;59175;53.214;5.728;2023-04-06T01:38:58;4.07;;;0.88;;
71368;SDS011;59175;53.214;5.728;2023-04-06T01:41:23;2.13;;;0.97;;
71368;SDS011;59175;53.214;5.728;2023-04-06T01:43:48;3.22;;;0.90;;
71368;SDS011;59175;53.214;5.728;2023-04-06T01:46:14;2.25;;;0.77;;
71368;SDS011;59175;53.214;5.728;2023-04-06T01:48:40;4.53;;;1.27;;
71368;SDS011;59175;53.214;5.728;2023-04-06T01:51:05;3.03;;;1.35;;
71368;SDS011;59175;53.214;5.728;2023-04-06T01:53:30;2.95;;;1.17;;
71368;SDS011;59175;53.214;5.728;2023-04-06T01:55:56;4.23;;;1.83;;
71368;SDS011;59175;53.214;5.728;2023-04-06T01:58:21;3.10;;;1.27;;
71368;SDS011;59175;53.214;5.728;2023-04-06T02:00:46;4.60;;;1.07;;
71368;SDS011;59175;53.214;5.728;2023-04-06T02:03:11;2.60;;;1.53;;
71368;SDS011;59175;53.214;5.728;2023-04-06T02:05:37;3.50;;;1.27;;
71368;SDS011;59175;53.214;5.728;2023-04-06T02:08:05;3.38;;;1.10;;
71368;SDS011;59175;53.214;5.728;2023-04-06T02:10:30;4.40;;;1.67;;
71368;SDS011;59175;53.214;5.728;2023-04-06T02:12:56;5.00;;;1.80;;
71368;SDS011;59175;53.214;5.728;2023-04-06T02:15:21;4.43;;;0.60;;
71368;SDS011;59175;53.214;5.728;2023-04-06T02:17:46;5.70;;;1.60;;
71368;SDS011;59175;53.214;5.728;2023-04-06T02:20:11;6.57;;;2.00;;
71368;SDS011;59175;53.214;5.728;2023-04-06T02:22:37;4.73;;;1.23;;
71368;SDS011;59175;53.214;5.728;2023-04-06T02:25:02;4.93;;;1.73;;
71368;SDS011;59175;53.214;5.728;2023-04-06T02:27:27;2.57;;;1.00;;
71368;SDS011;59175;53.214;5.728;2023-04-06T02:29:52;5.13;;;1.77;;
71368;SDS011;59175;53.214;5.728;2023-04-06T02:32:18;3.47;;;1.20;;
71368;SDS011;59175;53.214;5.728;2023-04-06T02:34:43;6.17;;;1.03;;
71368;SDS011;59175;53.214;5.728;2023-04-06T02:37:08;5.10;;;1.27;;
71368;SDS011;59175;53.214;5.728;2023-04-06T02:39:33;4.33;;;1.67;;
71368;SDS011;59175;53.214;5.728;2023-04-06T02:41:59;2.60;;;1.00;;
71368;SDS011;59175;53.214;5.728;2023-04-06T02:44:24;5.27;;;1.80;;
71368;SDS011;59175;53.214;5.728;2023-04-06T02:46:50;2.03;;;0.77;;
71368;SDS011;59175;53.214;5.728;2023-04-06T02:49:15;2.80;;;1.00;;
71368;SDS011;59175;53.214;5.728;2023-04-06T02:51:41;1.93;;;0.50;;
71368;SDS011;59175;53.214;5.728;2023-04-06T02:54:06;3.73;;;0.60;;
71368;SDS011;59175;53.214;5.728;2023-04-06T02:56:31;3.47;;;0.87;;
71368;SDS011;59175;53.214;5.728;2023-04-06T02:58:56;3.57;;;1.10;;
71368;SDS011;59175;53.214;5.728;2023-04-06T03:01:22;2.53;;;0.83;;
71368;SDS011;59175;53.214;5.728;2023-04-06T03:03:47;3.30;;;0.88;;
71368;SDS011;59175;53.214;5.728;2023-04-06T03:06:12;3.00;;;0.80;;
71368;SDS011;59175;53.214;5.728;2023-04-06T03:08:37;5.55;;;0.95;;
71368;SDS011;59175;53.214;5.728;2023-04-06T03:11:03;4.97;;;1.40;;
71368;SDS011;59175;53.214;5.728;2023-04-06T03:13:28;2.60;;;1.08;;
71368;SDS011;59175;53.214;5.728;2023-04-06T03:15:53;3.57;;;1.30;;
71368;SDS011;59175;53.214;5.728;2023-04-06T03:18:21;2.97;;;1.00;;
71368;SDS011;59175;53.214;5.728;2023-04-06T03:20:46;3.20;;;0.95;;
71368;SDS011;59175;53.214;5.728;2023-04-06T03:23:12;3.23;;;0.93;;
71368;SDS011;59175;53.214;5.728;2023-04-06T03:25:38;5.30;;;2.00;;
71368;SDS011;59175;53.214;5.728;2023-04-06T03:28:04;4.22;;;1.52;;
71368;SDS011;59175;53.214;5.728;2023-04-06T03:30:30;5.20;;;1.03;;
71368;SDS011;59175;53.214;5.728;2023-04-06T03:32:55;5.90;;;1.07;;
71368;SDS011;59175;53.214;5.728;2023-04-06T03:35:20;3.37;;;0.97;;
71368;SDS011;59175;53.214;5.728;2023-04-06T03:37:45;2.57;;;0.50;;
71368;SDS011;59175;53.214;5.728;2023-04-06T03:40:11;4.53;;;1.53;;
71368;SDS011;59175;53.214;5.728;2023-04-06T03:42:36;5.63;;;2.27;;
71368;SDS011;59175;53.214;5.728;2023-04-06T03:45:01;2.23;;;0.97;;
71368;SDS011;59175;53.214;5.728;2023-04-06T03:47:26;2.87;;;0.70;;
71368;SDS011;59175;53.214;5.728;2023-04-06T03:49:52;8.87;;;1.50;;
71368;SDS011;59175;53.214;5.728;2023-04-06T03:52:17;5.20;;;1.13;;
71368;SDS011;59175;53.214;5.728;2023-04-06T03:54:42;4.18;;;1.55;;
71368;SDS011;59175;53.214;5.728;2023-04-06T03:57:08;4.03;;;1.00;;
71368;SDS011;59175;53.214;5.728;2023-04-06T03:59:33;3.80;;;2.00;;
71368;SDS011;59175;53.214;5.728;2023-04-06T04:01:58;4.87;;;0.93;;
71368;SDS011;59175;53.214;5.728;2023-04-06T04:04:23;7.43;;;2.03;;
71368;SDS011;59175;53.214;5.728;2023-04-06T04:06:49;3.23;;;1.03;;
71368;SDS011;59175;53.214;5.728;2023-04-06T04:09:14;3.63;;;1.37;;
71368;SDS011;59175;53.214;5.728;2023-04-06T04:11:39;3.97;;;1.30;;
71368;SDS011;59175;53.214;5.728;2023-04-06T04:14:05;6.37;;;1.23;;
71368;SDS011;59175;53.214;5.728;2023-04-06T04:16:30;3.37;;;0.80;;
71368;SDS011;59175;53.214;5.728;2023-04-06T04:18:55;6.83;;;1.23;;
71368;SDS011;59175;53.214;5.728;2023-04-06T04:21:20;3.63;;;1.30;;
71368;SDS011;59175;53.214;5.728;2023-04-06T04:23:46;1.93;;;0.70;;
71368;SDS011;59175;53.214;5.728;2023-04-06T04:26:11;2.90;;;0.80;;
71368;SDS011;59175;53.214;5.728;2023-04-06T04:28:36;7.93;;;2.30;;
71368;SDS011;59175;53.214;5.728;2023-04-06T04:31:01;5.13;;;1.73;;
71368;SDS011;59175;53.214;5.728;2023-04-06T04:33:27;2.07;;;0.80;;
71368;SDS011;59175;53.214;5.728;2023-04-06T04:35:52;4.30;;;1.40;;
71368;SDS011;59175;53.214;5.728;2023-04-06T04:38:17;4.40;;;1.37;;
71368;SDS011;59175;53.214;5.728;2023-04-06T04:40:42;7.00;;;2.43;;
71368;SDS011;59175;53.214;5.728;2023-04-06T04:43:08;4.60;;;1.53;;
71368;SDS011;59175;53.214;5.728;2023-04-06T04:45:33;4.87;;;2.10;;
71368;SDS011;59175;53.214;5.728;2023-04-06T04:47:58;8.57;;;2.13;;
71368;SDS011;59175;53.214;5.728;2023-04-06T04:50:23;9.30;;;2.17;;
71368;SDS011;59175;53.214;5.728;2023-04-06T04:52:49;3.57;;;1.23;;
71368;SDS011;59175;53.214;5.728;2023-04-06T04:55:14;5.53;;;1.33;;
71368;SDS011;59175;53.214;5.728;2023-04-06T04:57:39;6.40;;;1.00;;
71368;SDS011;59175;53.214;5.728;2023-04-06T05:00:05;3.42;;;1.17;;
71368;SDS011;59175;53.214;5.728;2023-04-06T05:02:30;3.63;;;0.80;;
71368;SDS011;59175;53.214;5.728;2023-04-06T05:04:56;4.67;;;1.27;;
71368;SDS011;59175;53.214;5.728;2023-04-06T05:07:21;8.93;;;1.03;;
71368;SDS011;59175;53.214;5.728;2023-04-06T05:09:46;3.83;;;1.10;;
71368;SDS011;59175;53.214;5.728;2023-04-06T05:12:12;4.30;;;1.90;;
71368;SDS011;59175;53.214;5.728;2023-04-06T05:14:37;5.30;;;1.53;;
71368;SDS011;59175;53.214;5.728;2023-04-06T05:17:02;5.77;;;2.20;;
71368;SDS011;59175;53.214;5.728;2023-04-06T05:19:27;8.30;;;2.20;;
71368;SDS011;59175;53.214;5.728;2023-04-06T05:21:52;4.80;;;1.80;;
71368;SDS011;59175;53.214;5.728;2023-04-06T05:24:18;4.63;;;1.53;;
71368;SDS011;59175;53.214;5.728;2023-04-06T05:26:43;7.93;;;1.87;;
71368;SDS011;59175;53.214;5.728;2023-04-06T05:29:08;3.70;;;1.13;;
71368;SDS011;59175;53.214;5.728;2023-04-06T05:31:34;6.40;;;1.93;;
71368;SDS011;59175;53.214;5.728;2023-04-06T05:33:59;4.38;;;1.40;;
71368;SDS011;59175;53.214;5.728;2023-04-06T05:36:24;6.05;;;1.33;;
71368;SDS011;59175;53.214;5.728;2023-04-06T05:38:49;3.25;;;1.27;;
71368;SDS011;59175;53.214;5.728;2023-04-06T05:41:17;7.65;;;2.10;;
71368;SDS011;59175;53.214;5.728;2023-04-06T05:43:42;6.13;;;2.17;;
71368;SDS011;59175;53.214;5.728;2023-04-06T05:46:08;5.03;;;1.37;;
71368;SDS011;59175;53.214;5.728;2023-04-06T05:48:33;6.90;;;1.43;;
71368;SDS011;59175;53.214;5.728;2023-04-06T05:50:58;5.43;;;1.67;;
71368;SDS011;59175;53.214;5.728;2023-04-06T05:53:24;5.57;;;1.58;;
71368;SDS011;59175;53.214;5.728;2023-04-06T05:55:51;4.13;;;1.50;;
71368;SDS011;59175;53.214;5.728;2023-04-06T05:58:16;6.13;;;1.23;;
71368;SDS011;59175;53.214;5.728;2023-04-06T06:00:42;6.77;;;1.37;;
71368;SDS011;59175;53.214;5.728;2023-04-06T06:03:07;4.05;;;0.90;;
71368;SDS011;59175;53.214;5.728;2023-04-06T06:05:33;4.97;;;1.57;;
71368;SDS011;59175;53.214;5.728;2023-04-06T06:07:58;5.20;;;1.53;;
71368;SDS011;59175;53.214;5.728;2023-04-06T06:10:27;6.47;;;1.60;;
71368;SDS011;59175;53.214;5.728;2023-04-06T06:12:52;4.73;;;1.50;;
71368;SDS011;59175;53.214;5.728;2023-04-06T06:15:17;2.17;;;0.60;;
71368;SDS011;59175;53.214;5.728;2023-04-06T06:17:42;3.57;;;0.87;;
71368;SDS011;59175;53.214;5.728;2023-04-06T06:20:08;9.83;;;2.50;;
71368;SDS011;59175;53.214;5.728;2023-04-06T06:22:33;7.15;;;2.30;;
71368;SDS011;59175;53.214;5.728;2023-04-06T06:24:59;4.87;;;1.57;;
71368;SDS011;59175;53.214;5.728;2023-04-06T06:27:24;4.57;;;1.50;;
71368;SDS011;59175;53.214;5.728;2023-04-06T06:29:49;6.43;;;2.40;;
71368;SDS011;59175;53.214;5.728;2023-04-06T06:32:15;9.63;;;2.03;;
71368;SDS011;59175;53.214;5.728;2023-04-06T06:34:40;6.80;;;2.17;;
71368;SDS011;59175;53.214;5.728;2023-04-06T06:37:05;4.45;;;1.40;;
71368;SDS011;59175;53.214;5.728;2023-04-06T06:39:31;4.38;;;1.83;;
71368;SDS011;59175;53.214;5.728;2023-04-06T06:41:56;5.15;;;2.05;;
71368;SDS011;59175;53.214;5.728;2023-04-06T06:44:21;9.15;;;2.88;;
71368;SDS011;59175;53.214;5.728;2023-04-06T06:46:47;5.97;;;2.27;;
71368;SDS011;59175;53.214;5.728;2023-04-06T06:49:12;4.00;;;1.83;;
71368;SDS011;59175;53.214;5.728;2023-04-06T06:51:37;4.67;;;1.87;;
71368;SDS011;59175;53.214;5.728;2023-04-06T06:54:02;2.93;;;1.17;;
71368;SDS011;59175;53.214;5.728;2023-04-06T06:56:28;5.03;;;2.20;;
71368;SDS011;59175;53.214;5.728;2023-04-06T06:58:53;5.03;;;1.60;;
71368;SDS011;59175;53.214;5.728;2023-04-06T07:01:18;4.23;;;1.50;;
71368;SDS011;59175;53.214;5.728;2023-04-06T07:03:44;6.10;;;1.97;;
71368;SDS011;59175;53.214;5.728;2023-04-06T07:06:09;4.50;;;1.75;;
71368;SDS011;59175;53.214;5.728;2023-04-06T07:08:34;4.00;;;0.95;;
71368;SDS011;59175;53.214;5.728;2023-04-06T07:11:00;4.63;;;1.40;;
71368;SDS011;59175;53.214;5.728;2023-04-06T07:13:25;4.55;;;1.23;;
71368;SDS011;59175;53.214;5.728;2023-04-06T07:15:51;6.38;;;2.13;;
71368;SDS011;59175;53.214;5.728;2023-04-06T07:18:17;5.20;;;1.23;;
71368;SDS011;59175;53.214;5.728;2023-04-06T07:20:43;6.60;;;1.75;;
71368;SDS011;59175;53.214;5.728;2023-04-06T07:23:08;4.17;;;1.13;;
71368;SDS011;59175;53.214;5.728;2023-04-06T07:25:33;6.97;;;2.90;;
71368;SDS011;59175;53.214;5.728;2023-04-06T07:27:58;10.27;;;3.33;;
71368;SDS011;59175;53.214;5.728;2023-04-06T07:30:23;8.23;;;3.87;;
71368;SDS011;59175;53.214;5.728;2023-04-06T07:32:51;10.20;;;2.75;;
71368;SDS011;59175;53.214;5.728;2023-04-06T07:35:16;10.27;;;3.93;;
71368;SDS011;59175;53.214;5.728;2023-04-06T07:37:41;7.93;;;3.40;;
71368;SDS011;59175;53.214;5.728;2023-04-06T07:40:07;7.57;;;3.00;;
71368;SDS011;59175;53.214;5.728;2023-04-06T07:42:33;7.72;;;2.80;;
71368;SDS011;59175;53.214;5.728;2023-04-06T07:44:58;6.13;;;2.07;;
71368;SDS011;59175;53.214;5.728;2023-04-06T07:47:23;8.33;;;1.83;;
71368;SDS011;59175;53.214;5.728;2023-04-06T07:49:48;7.27;;;2.53;;
71368;SDS011;59175;53.214;5.728;2023-04-06T07:52:14;9.67;;;3.23;;
71368;SDS011;59175;53.214;5.728;2023-04-06T07:54:40;9.10;;;2.63;;
71368;SDS011;59175;53.214;5.728;2023-04-06T07:57:05;7.25;;;2.08;;
71368;SDS011;59175;53.214;5.728;2023-04-06T07:59:30;9.20;;;2.97;;
71368;SDS011;59175;53.214;5.728;2023-04-06T08:01:55;7.73;;;2.73;;
71368;SDS011;59175;53.214;5.728;2023-04-06T08:04:21;10.33;;;3.23;;
71368;SDS011;59175;53.214;5.728;2023-04-06T08:06:46;8.87;;;2.63;;
71368;SDS011;59175;53.214;5.728;2023-04-06T08:09:11;10.00;;;2.37;;
71368;SDS011;59175;53.214;5.728;2023-04-06T08:11:37;9.33;;;2.40;;
71368;SDS011;59175;53.214;5.728;2023-04-06T08:14:02;9.87;;;3.27;;
71368;SDS011;59175;53.214;5.728;2023-04-06T08:16:27;6.43;;;2.30;;
71368;SDS011;59175;53.214;5.728;2023-04-06T08:18:52;5.93;;;2.57;;
71368;SDS011;59175;53.214;5.728;2023-04-06T08:21:18;10.30;;;3.00;;
71368;SDS011;59175;53.214;5.728;2023-04-06T08:23:43;11.63;;;2.83;;
71368;SDS011;59175;53.214;5.728;2023-04-06T08:26:08;11.43;;;3.70;;
71368;SDS011;59175;53.214;5.728;2023-04-06T08:28:34;10.60;;;2.88;;
71368;SDS011;59175;53.214;5.728;2023-04-06T08:31:03;7.73;;;2.33;;
71368;SDS011;59175;53.214;5.728;2023-04-06T08:33:28;9.35;;;2.60;;
71368;SDS011;59175;53.214;5.728;2023-04-06T08:35:53;13.87;;;3.90;;
71368;SDS011;59175;53.214;5.728;2023-04-06T08:38:18;6.80;;;2.83;;
71368;SDS011;59175;53.214;5.728;2023-04-06T08:40:43;8.73;;;2.97;;
71368;SDS011;59175;53.214;5.728;2023-04-06T08:43:11;10.07;;;3.20;;
71368;SDS011;59175;53.214;5.728;2023-04-06T08:45:38;8.75;;;2.78;;
71368;SDS011;59175;53.214;5.728;2023-04-06T08:48:03;9.03;;;3.47;;
71368;SDS011;59175;53.214;5.728;2023-04-06T08:50:32;5.90;;;2.22;;
71368;SDS011;59175;53.214;5.728;2023-04-06T08:52:57;16.30;;;3.15;;
71368;SDS011;59175;53.214;5.728;2023-04-06T08:55:24;31.13;;;8.25;;
71368;SDS011;59175;53.214;5.728;2023-04-06T08:57:49;10.33;;;3.07;;
71368;SDS011;59175;53.214;5.728;2023-04-06T09:00:15;7.18;;;3.30;;
71368;SDS011;59175;53.214;5.728;2023-04-06T09:02:42;7.23;;;2.33;;
71368;SDS011;59175;53.214;5.728;2023-04-06T09:05:08;8.10;;;3.13;;
71368;SDS011;59175;53.214;5.728;2023-04-06T09:07:34;11.52;;;4.25;;
71368;SDS011;59175;53.214;5.728;2023-04-06T09:09:59;11.10;;;4.63;;
71368;SDS011;59175;53.214;5.728;2023-04-06T09:12:26;10.03;;;3.70;;
71368;SDS011;59175;53.214;5.728;2023-04-06T09:14:51;12.40;;;4.68;;
71368;SDS011;59175;53.214;5.728;2023-04-06T09:17:20;8.73;;;3.27;;
71368;SDS011;59175;53.214;5.728;2023-04-06T09:19:46;11.27;;;4.00;;
71368;SDS011;59175;53.214;5.728;2023-04-06T09:22:11;9.23;;;3.97;;
71368;SDS011;59175;53.214;5.728;2023-04-06T09:24:41;9.03;;;3.57;;
71368;SDS011;59175;53.214;5.728;2023-04-06T09:27:06;12.82;;;4.63;;
71368;SDS011;59175;53.214;5.728;2023-04-06T09:29:31;11.23;;;3.63;;
71368;SDS011;59175;53.214;5.728;2023-04-06T09:32:06;8.63;;;3.30;;
71368;SDS011;59175;53.214;5.728;2023-04-06T09:34:32;10.93;;;4.50;;
71368;SDS011;59175;53.214;5.728;2023-04-06T09:36:58;11.73;;;4.57;;
71368;SDS011;59175;53.214;5.728;2023-04-06T09:39:23;13.20;;;5.32;;
71368;SDS011;59175;53.214;5.728;2023-04-06T09:41:52;12.43;;;4.83;;
71368;SDS011;59175;53.214;5.728;2023-04-06T09:44:17;14.07;;;3.80;;
71368;SDS011;59175;53.214;5.728;2023-04-06T09:46:44;17.10;;;3.77;;
71368;SDS011;59175;53.214;5.728;2023-04-06T09:49:10;13.95;;;5.35;;
71368;SDS011;59175;53.214;5.728;2023-04-06T09:51:36;11.88;;;3.25;;
71368;SDS011;59175;53.214;5.728;2023-04-06T09:54:02;10.87;;;4.20;;
71368;SDS011;59175;53.214;5.728;2023-04-06T09:56:50;14.32;;;5.65;;
71368;SDS011;59175;53.214;5.728;2023-04-06T10:02:06;14.43;;;5.53;;
71368;SDS011;59175;53.214;5.728;2023-04-06T10:07:33;13.70;;;4.33;;
71368;SDS011;59175;53.214;5.728;2023-04-06T10:10:00;14.75;;;4.47;;
71368;SDS011;59175;53.214;5.728;2023-04-06T10:12:27;9.70;;;3.35;;
71368;SDS011;59175;53.214;5.728;2023-04-06T10:14:52;16.13;;;5.07;;
71368;SDS011;59175;53.214;5.728;2023-04-06T10:17:18;16.50;;;4.88;;
71368;SDS011;59175;53.214;5.728;2023-04-06T10:22:12;15.17;;;5.13;;
71368;SDS011;59175;53.214;5.728;2023-04-06T10:24:40;12.32;;;4.43;;
71368;SDS011;59175;53.214;5.728;2023-04-06T10:27:06;14.23;;;6.10;;
71368;SDS011;59175;53.214;5.728;2023-04-06T10:29:46;10.40;;;4.28;;
71368;SDS011;59175;53.214;5.728;2023-04-06T10:32:13;15.82;;;5.90;;
71368;SDS011;59175;53.214;5.728;2023-04-06T10:34:38;24.93;;;6.63;;
71368;SDS011;59175;53.214;5.728;2023-04-06T10:37:10;13.53;;;5.50;;
71368;SDS011;59175;53.214;5.728;2023-04-06T10:39:36;12.82;;;4.78;;
71368;SDS011;59175;53.214;5.728;2023-04-06T10:42:10;12.82;;;4.80;;
71368;SDS011;59175;53.214;5.728;2023-04-06T10:44:41;15.87;;;6.10;;
71368;SDS011;59175;53.214;5.728;2023-04-06T10:47:07;13.57;;;4.00;;
71368;SDS011;59175;53.214;5.728;2023-04-06T10:49:40;15.25;;;5.43;;
71368;SDS011;59175;53.214;5.728;2023-04-06T10:52:05;12.57;;;4.57;;
71368;SDS011;59175;53.214;5.728;2023-04-06T10:54:31;15.30;;;6.25;;
71368;SDS011;59175;53.214;5.728;2023-04-06T10:56:57;14.93;;;5.23;;
71368;SDS011;59175;53.214;5.728;2023-04-06T10:59:23;11.63;;;4.83;;
71368;SDS011;59175;53.214;5.728;2023-04-06T11:01:49;13.68;;;5.75;;
71368;SDS011;59175;53.214;5.728;2023-04-06T11:04:15;12.93;;;5.13;;
71368;SDS011;59175;53.214;5.728;2023-04-06T11:06:41;12.32;;;4.55;;
71368;SDS011;59175;53.214;5.728;2023-04-06T11:09:06;16.40;;;5.40;;
71368;SDS011;59175;53.214;5.728;2023-04-06T11:11:31;12.97;;;5.27;;
71368;SDS011;59175;53.214;5.728;2023-04-06T11:13:57;14.40;;;4.97;;
71368;SDS011;59175;53.214;5.728;2023-04-06T11:16:23;13.45;;;6.05;;
71368;SDS011;59175;53.214;5.728;2023-04-06T11:18:53;14.70;;;5.45;;
71368;SDS011;59175;53.214;5.728;2023-04-06T11:21:20;13.82;;;5.32;;
71368;SDS011;59175;53.214;5.728;2023-04-06T11:23:45;17.07;;;5.83;;
71368;SDS011;59175;53.214;5.728;2023-04-06T11:26:11;16.50;;;5.53;;
71368;SDS011;59175;53.214;5.728;2023-04-06T11:28:36;13.55;;;6.55;;
71368;SDS011;59175;53.214;5.728;2023-04-06T11:31:02;16.13;;;5.20;;
71368;SDS011;59175;53.214;5.728;2023-04-06T11:33:27;12.77;;;5.03;;
71368;SDS011;59175;53.214;5.728;2023-04-06T11:35:52;11.57;;;4.37;;
71368;SDS011;59175;53.214;5.728;2023-04-06T11:38:21;10.98;;;4.43;;
71368;SDS011;59175;53.214;5.728;2023-04-06T11:40:47;16.17;;;6.47;;
71368;SDS011;59175;53.214;5.728;2023-04-06T11:43:17;16.05;;;5.97;;
71368;SDS011;59175;53.214;5.728;2023-04-06T11:45:42;16.73;;;6.27;;
71368;SDS011;59175;53.214;5.728;2023-04-06T11:48:16;13.00;;;4.80;;
71368;SDS011;59175;53.214;5.728;2023-04-06T11:50:42;11.75;;;4.68;;
71368;SDS011;59175;53.214;5.728;2023-04-06T11:53:07;20.73;;;4.83;;
71368;SDS011;59175;53.214;5.728;2023-04-06T11:55:37;12.93;;;5.00;;
71368;SDS011;59175;53.214;5.728;2023-04-06T11:58:02;13.57;;;3.78;;
71368;SDS011;59175;53.214;5.728;2023-04-06T12:00:27;9.30;;;2.67;;
71368;SDS011;59175;53.214;5.728;2023-04-06T12:02:56;8.93;;;3.20;;
71368;SDS011;59175;53.214;5.728;2023-04-06T12:05:22;10.80;;;2.80;;
71368;SDS011;59175;53.214;5.728;2023-04-06T12:07:48;8.25;;;2.15;;
71368;SDS011;59175;53.214;5.728;2023-04-06T12:10:13;8.53;;;2.43;;
71368;SDS011;59175;53.214;5.728;2023-04-06T12:12:38;10.43;;;2.80;;
71368;SDS011;59175;53.214;5.728;2023-04-06T12:15:04;12.23;;;3.80;;
71368;SDS011;59175;53.214;5.728;2023-04-06T12:17:30;12.25;;;3.88;;
71368;SDS011;59175;53.214;5.728;2023-04-06T12:19:55;13.20;;;3.50;;
71368;SDS011;59175;53.214;5.728;2023-04-06T12:22:20;12.27;;;4.17;;
71368;SDS011;59175;53.214;5.728;2023-04-06T12:24:46;14.35;;;4.35;;
71368;SDS011;59175;53.214;5.728;2023-04-06T12:27:11;12.80;;;3.70;;
71368;SDS011;59175;53.214;5.728;2023-04-06T12:29:37;10.93;;;3.10;;
71368;SDS011;59175;53.214;5.728;2023-04-06T12:32:02;11.67;;;3.17;;
71368;SDS011;59175;53.214;5.728;2023-04-06T12:34:28;8.88;;;2.85;;
71368;SDS011;59175;53.214;5.728;2023-04-06T12:36:53;10.57;;;3.15;;
71368;SDS011;59175;53.214;5.728;2023-04-06T12:39:18;9.83;;;4.00;;
71368;SDS011;59175;53.214;5.728;2023-04-06T12:41:43;9.50;;;3.20;;
71368;SDS011;59175;53.214;5.728;2023-04-06T12:44:09;12.47;;;4.00;;
71368;SDS011;59175;53.214;5.728;2023-04-06T12:46:34;12.30;;;4.63;;
71368;SDS011;59175;53.214;5.728;2023-04-06T12:49:00;15.97;;;4.20;;
71368;SDS011;59175;53.214;5.728;2023-04-06T12:51:29;15.80;;;4.93;;
71368;SDS011;59175;53.214;5.728;2023-04-06T12:53:55;9.32;;;3.78;;
71368;SDS011;59175;53.214;5.728;2023-04-06T12:56:21;11.87;;;3.67;;
71368;SDS011;59175;53.214;5.728;2023-04-06T12:58:47;7.80;;;3.33;;
71368;SDS011;59175;53.214;5.728;2023-04-06T13:01:13;9.45;;;3.22;;
71368;SDS011;59175;53.214;5.728;2023-04-06T13:03:38;9.07;;;2.60;;
71368;SDS011;59175;53.214;5.728;2023-04-06T13:06:04;9.37;;;2.37;;
71368;SDS011;59175;53.214;5.728;2023-04-06T13:08:29;8.05;;;2.63;;
71368;SDS011;59175;53.214;5.728;2023-04-06T13:10:54;5.40;;;1.87;;
71368;SDS011;59175;53.214;5.728;2023-04-06T13:13:24;6.57;;;1.53;;
71368;SDS011;59175;53.214;5.728;2023-04-06T13:15:50;3.97;;;1.17;;
71368;SDS011;59175;53.214;5.728;2023-04-06T13:18:15;5.47;;;1.50;;
71368;SDS011;59175;53.214;5.728;2023-04-06T13:20:41;7.07;;;2.20;;
71368;SDS011;59175;53.214;5.728;2023-04-06T13:23:07;6.47;;;2.00;;
71368;SDS011;59175;53.214;5.728;2023-04-06T13:25:32;9.02;;;2.40;;
71368;SDS011;59175;53.214;5.728;2023-04-06T13:27:57;6.35;;;2.25;;
71368;SDS011;59175;53.214;5.728;2023-04-06T13:30:23;9.27;;;2.87;;
71368;SDS011;59175;53.214;5.728;2023-04-06T13:32:48;8.00;;;2.90;;
71368;SDS011;59175;53.214;5.728;2023-04-06T13:35:13;7.93;;;3.30;;
71368;SDS011;59175;53.214;5.728;2023-04-06T13:37:39;9.90;;;3.47;;
71368;SDS011;59175;53.214;5.728;2023-04-06T13:40:04;8.47;;;3.40;;
71368;SDS011;59175;53.214;5.728;2023-04-06T13:42:30;8.57;;;3.33;;
71368;SDS011;59175;53.214;5.728;2023-04-06T13:44:55;8.17;;;2.73;;
71368;SDS011;59175;53.214;5.728;2023-04-06T13:47:20;9.37;;;3.17;;
71368;SDS011;59175;53.214;5.728;2023-04-06T13:49:46;8.47;;;3.40;;
71368;SDS011;59175;53.214;5.728;2023-04-06T13:52:11;9.33;;;3.57;;
71368;SDS011;59175;53.214;5.728;2023-04-06T13:54:36;6.68;;;2.35;;
71368;SDS011;59175;53.214;5.728;2023-04-06T13:57:02;10.23;;;2.97;;
71368;SDS011;59175;53.214;5.728;2023-04-06T13:59:34;15.73;;;3.60;;
71368;SDS011;59175;53.214;5.728;2023-04-06T14:01:59;10.80;;;3.40;;
71368;SDS011;59175;53.214;5.728;2023-04-06T14:04:25;9.20;;;3.55;;
71368;SDS011;59175;53.214;5.728;2023-04-06T14:06:50;9.03;;;2.90;;
71368;SDS011;59175;53.214;5.728;2023-04-06T14:09:15;8.23;;;3.57;;
71368;SDS011;59175;53.214;5.728;2023-04-06T14:11:40;8.47;;;3.83;;
71368;SDS011;59175;53.214;5.728;2023-04-06T14:14:06;11.30;;;4.30;;
71368;SDS011;59175;53.214;5.728;2023-04-06T14:16:31;10.70;;;3.65;;
71368;SDS011;59175;53.214;5.728;2023-04-06T14:18:57;10.10;;;4.77;;
71368;SDS011;59175;53.214;5.728;2023-04-06T14:21:22;11.83;;;3.27;;
71368;SDS011;59175;53.214;5.728;2023-04-06T14:23:47;12.90;;;3.87;;
71368;SDS011;59175;53.214;5.728;2023-04-06T14:26:13;14.83;;;4.87;;
71368;SDS011;59175;53.214;5.728;2023-04-06T14:28:38;11.05;;;4.95;;
71368;SDS011;59175;53.214;5.728;2023-04-06T14:31:13;9.20;;;3.90;;
71368;SDS011;59175;53.214;5.728;2023-04-06T14:33:40;11.68;;;4.38;;
71368;SDS011;59175;53.214;5.728;2023-04-06T14:36:05;11.17;;;4.20;;
71368;SDS011;59175;53.214;5.728;2023-04-06T14:38:31;11.60;;;5.03;;
71368;SDS011;59175;53.214;5.728;2023-04-06T14:40:56;12.00;;;3.77;;
71368;SDS011;59175;53.214;5.728;2023-04-06T14:43:21;9.77;;;4.13;;